Terminal Aerodrome Forecast
Issued by NWS

Home | Current Version | Previous Version | Text Only | Print | Product List | Glossary On
Versions: 1 2 3 4 5 6 7 8 9 10 11 12 13 14 15 16
000
FTUS44 KLZK 220900 AAB
TAFHRO
TAF AMD
KHRO 220929Z 2209/2306 17007KT P6SM OVC035 WS020/20040KT
     FM221500 16010G16KT 6SM -DZ BR SCT005 BKN010 WS020/20040KT
     FM221800 17010G18KT P6SM VCSH SCT015 BKN040
     FM230000 14009G16KT 6SM -RA BR BKN015 OVC025=

USA.gov is the U.S. government's official web portal to all federal, state and local government web resources and services.